FVFA

Victoria Falls International Airport

Victoria Falls, Zimbabwe
METAR FVFA 131100Z 09018KT 060V120 CAVOK 34/05 Q1018 NOSIG
Observed Flight Rules
Dec-13 @ 11:00 UTC (54 minutes ago) Visual Flight Rules
Wind Visibility Clouds
90° at 18 knots 10,000+ meters
  • Clear skies
Temperatures Readings
Current 34°C / 93°F
Dewpoint 5°C / 41°F
Humidity 16%
Altimeter 30.06" Hg
Pressure 1018 hPa
Elevation 1062
METAR FVFA 131100Z 09018KT 060V120 CAVOK 34/05 Q1018 NOSIG
Observed Flight Rules
Dec-13 @ 11:00 UTC
(54 minutes ago)
VFR
Wind Visibility
90° at 18 knots 10,000+ meters
Clouds
  • Clear skies
Temperature Dewpoint
34°C / 93°F 5°C / 41°F
Humidity Altimeter Pressure
16% 30.06" Hg 1018 hPa